createdAt,value
2023-01-17T00:01:34.226Z,23.08
2023-01-17T00:04:38.855Z,23.10
2023-01-17T00:07:43.891Z,23.11
2023-01-17T00:10:30.086Z,23.13
2023-01-17T00:13:16.201Z,23.14
2023-01-17T00:16:02.287Z,23.15
2023-01-17T00:19:08.436Z,23.18
2023-01-17T00:22:13.283Z,23.17
2023-01-17T00:25:18.081Z,23.19
2023-01-17T00:28:04.323Z,23.20
2023-01-17T00:30:50.183Z,23.21
2023-01-17T00:33:36.478Z,23.22
2023-01-17T00:36:22.638Z,23.23
2023-01-17T00:39:09.003Z,23.24
2023-01-17T00:41:55.169Z,23.25
2023-01-17T00:45:00.295Z,23.26
2023-01-17T00:48:05.104Z,23.28
2023-01-17T00:51:09.950Z,23.29
2023-01-17T00:54:14.667Z,23.30
2023-01-17T00:57:19.083Z,23.30
2023-01-17T01:00:23.829Z,23.32
2023-01-17T01:03:28.962Z,23.33
2023-01-17T01:06:33.810Z,23.33
2023-01-17T01:09:38.829Z,23.35
2023-01-17T01:12:43.504Z,23.36
2023-01-17T01:15:48.393Z,23.36
2023-01-17T01:18:53.116Z,23.36
2023-01-17T01:21:57.761Z,23.39
2023-01-17T01:25:02.526Z,23.39
2023-01-17T01:28:07.715Z,23.41
2023-01-17T01:31:12.354Z,23.41
2023-01-17T01:33:58.523Z,23.42
2023-01-17T01:36:44.539Z,23.44
2023-01-17T01:39:30.527Z,23.44
2023-01-17T01:42:16.628Z,23.45
2023-01-17T01:45:03.786Z,23.47
2023-01-17T01:47:50.308Z,23.47
2023-01-17T01:50:37.519Z,23.49
2023-01-17T01:53:23.352Z,23.49
2023-01-17T01:56:11.052Z,23.49
2023-01-17T01:58:57.118Z,23.50
2023-01-17T02:01:43.652Z,23.50
2023-01-17T02:04:30.297Z,23.51
2023-01-17T02:07:24.041Z,23.53
2023-01-17T02:10:10.479Z,23.52
2023-01-17T02:12:56.605Z,23.54
2023-01-17T02:15:42.960Z,23.56
2023-01-17T02:18:35.206Z,23.56
2023-01-17T02:21:22.448Z,23.57
2023-01-17T02:24:17.983Z,23.58
2023-01-17T02:27:07.832Z,23.59
2023-01-17T02:30:12.165Z,23.61
2023-01-17T02:32:58.530Z,23.61
2023-01-17T02:35:49.237Z,23.62
2023-01-17T02:38:41.683Z,23.61
2023-01-17T02:41:32.147Z,23.62
2023-01-17T02:44:18.910Z,23.63
2023-01-17T02:47:15.991Z,23.60
2023-01-17T02:50:03.670Z,23.61
2023-01-17T02:52:49.435Z,23.60
2023-01-17T02:55:56.039Z,23.59
2023-01-17T02:59:05.397Z,23.59
2023-01-17T03:01:54.629Z,23.59
2023-01-17T03:04:42.392Z,23.59
2023-01-17T03:07:28.396Z,23.58
2023-01-17T03:10:14.843Z,23.57
2023-01-17T03:13:01.016Z,23.59
2023-01-17T03:15:46.943Z,23.57
2023-01-17T03:18:32.933Z,23.57
2023-01-17T03:21:18.901Z,23.57
2023-01-17T03:24:05.310Z,23.56
2023-01-17T03:26:51.511Z,23.58
2023-01-17T03:29:37.306Z,23.57
2023-01-17T03:32:23.487Z,23.58
2023-01-17T03:35:09.844Z,23.56
2023-01-17T03:37:56.414Z,23.56
2023-01-17T03:40:42.745Z,23.57
2023-01-17T03:43:28.884Z,23.57
2023-01-17T03:46:21.850Z,23.56
2023-01-17T03:49:08.758Z,23.56
2023-01-17T03:51:55.063Z,23.56
2023-01-17T03:54:40.984Z,23.57
2023-01-17T03:57:27.052Z,23.58
2023-01-17T04:00:13.541Z,23.56
2023-01-17T04:02:59.737Z,23.56
2023-01-17T04:05:45.727Z,23.57
2023-01-17T04:08:31.736Z,23.56
2023-01-17T04:11:18.023Z,23.57
2023-01-17T04:14:04.255Z,23.58
2023-01-17T04:16:50.204Z,23.57
2023-01-17T04:19:36.576Z,23.57
2023-01-17T04:22:22.657Z,23.57
2023-01-17T04:25:09.029Z,23.57
2023-01-17T04:27:55.489Z,23.58
2023-01-17T04:30:41.608Z,23.57
2023-01-17T04:33:27.509Z,23.57
2023-01-17T04:36:13.730Z,23.56
2023-01-17T04:38:59.790Z,23.58
2023-01-17T04:41:45.803Z,23.57
2023-01-17T04:44:32.283Z,23.58
2023-01-17T04:47:18.298Z,23.57
2023-01-17T04:50:04.449Z,23.57
2023-01-17T04:52:50.278Z,23.57
2023-01-17T04:55:36.638Z,23.57
2023-01-17T04:58:22.468Z,23.58
2023-01-17T05:01:08.771Z,23.58
2023-01-17T05:03:54.637Z,23.58
2023-01-17T05:06:40.428Z,23.57
2023-01-17T05:09:26.602Z,23.57
2023-01-17T05:12:12.783Z,23.56
2023-01-17T05:14:58.825Z,23.51
2023-01-17T05:17:44.805Z,23.49
2023-01-17T05:20:30.858Z,23.48
2023-01-17T05:23:16.796Z,23.47
2023-01-17T05:26:02.881Z,23.47
2023-01-17T05:28:49.177Z,23.47
2023-01-17T05:31:35.597Z,23.49
2023-01-17T05:34:21.877Z,23.47
2023-01-17T05:37:07.970Z,23.50
2023-01-17T05:39:54.171Z,23.51
2023-01-17T05:42:44.306Z,23.52
2023-01-17T05:45:31.384Z,23.53
2023-01-17T05:48:17.517Z,23.53
2023-01-17T05:51:03.817Z,23.53
2023-01-17T05:53:49.839Z,23.51
2023-01-17T05:56:36.053Z,23.51
2023-01-17T05:59:35.971Z,23.49
2023-01-17T06:02:22.757Z,23.51
2023-01-17T06:05:09.336Z,23.50
2023-01-17T06:07:56.674Z,23.48
2023-01-17T06:10:42.555Z,23.47
2023-01-17T06:13:28.803Z,23.47
2023-01-17T06:16:14.511Z,23.47
2023-01-17T06:19:00.679Z,23.47
2023-01-17T06:21:46.791Z,23.48
2023-01-17T06:24:33.995Z,23.48
2023-01-17T06:27:20.147Z,23.47
2023-01-17T06:30:06.746Z,23.49
2023-01-17T06:32:53.954Z,23.50
2023-01-17T06:35:44.309Z,23.50
2023-01-17T06:38:31.590Z,23.50
2023-01-17T06:41:17.854Z,23.53
2023-01-17T06:44:04.153Z,23.54
2023-01-17T06:46:50.830Z,23.53
2023-01-17T06:49:37.007Z,23.56
2023-01-17T06:52:22.975Z,23.56
2023-01-17T06:55:09.973Z,23.58
2023-01-17T06:57:56.802Z,23.57
2023-01-17T07:00:43.435Z,23.59
2023-01-17T07:03:29.649Z,23.58
2023-01-17T07:06:15.895Z,23.58
2023-01-17T07:09:01.910Z,23.56
2023-01-17T07:11:48.373Z,23.55
2023-01-17T07:14:34.306Z,23.55
2023-01-17T07:17:20.501Z,23.56
2023-01-17T07:20:07.081Z,23.55
2023-01-17T07:22:53.308Z,23.56
2023-01-17T07:25:39.351Z,23.56
2023-01-17T07:28:25.939Z,23.56
2023-01-17T07:31:12.074Z,23.56
2023-01-17T07:33:59.191Z,23.57
2023-01-17T07:36:45.716Z,23.58
2023-01-17T07:39:31.589Z,23.60
2023-01-17T07:42:17.948Z,23.60
2023-01-17T07:45:04.634Z,23.62
2023-01-17T07:47:50.402Z,23.62
2023-01-17T07:50:36.675Z,23.63
2023-01-17T07:53:23.514Z,23.64
2023-01-17T07:56:10.252Z,23.64
2023-01-17T07:58:57.298Z,23.65
2023-01-17T08:01:43.728Z,23.65
2023-01-17T08:04:34.799Z,23.63
2023-01-17T08:07:21.108Z,23.62
2023-01-17T08:10:08.845Z,23.61
2023-01-17T08:12:55.437Z,23.61
2023-01-17T08:15:41.502Z,23.61
2023-01-17T08:18:28.154Z,23.60
2023-01-17T08:21:15.004Z,23.60
2023-01-17T08:24:00.939Z,23.61
2023-01-17T08:26:47.472Z,23.65
2023-01-17T08:29:33.590Z,23.67
2023-01-17T08:32:21.373Z,23.70
2023-01-17T08:35:08.424Z,23.71
2023-01-17T08:37:55.096Z,23.73
2023-01-17T08:40:41.169Z,23.75
2023-01-17T08:43:27.538Z,23.81
2023-01-17T08:46:13.622Z,23.87
2023-01-17T08:49:00.137Z,23.91
2023-01-17T08:51:46.456Z,23.92
2023-01-17T08:54:32.783Z,23.89
2023-01-17T08:57:19.499Z,23.87
2023-01-17T09:00:07.730Z,23.85
2023-01-17T09:02:54.333Z,23.84
2023-01-17T09:05:40.346Z,23.91
2023-01-17T09:08:26.313Z,23.95
2023-01-17T09:11:13.204Z,23.94
2023-01-17T09:13:59.414Z,23.94
2023-01-17T09:16:45.379Z,23.93
2023-01-17T09:19:31.355Z,23.90
2023-01-17T09:22:17.642Z,23.92
2023-01-17T09:25:03.659Z,23.93
2023-01-17T09:27:50.319Z,23.92
2023-01-17T09:30:36.497Z,23.92
2023-01-17T09:33:25.761Z,23.89
2023-01-17T09:36:12.367Z,23.89
2023-01-17T09:38:58.631Z,23.87
2023-01-17T09:42:03.388Z,23.83
2023-01-17T09:44:52.183Z,23.80
2023-01-17T09:47:40.626Z,23.80
2023-01-17T09:50:29.802Z,23.76
2023-01-17T09:53:20.926Z,23.73
2023-01-17T09:56:15.562Z,23.70
2023-01-17T09:59:37.230Z,23.68
2023-01-17T10:02:26.697Z,23.66
2023-01-17T10:05:31.340Z,23.66
2023-01-17T10:08:20.676Z,23.65
2023-01-17T10:11:27.229Z,23.64
2023-01-17T10:14:18.947Z,23.61
2023-01-17T10:17:13.862Z,23.61
2023-01-17T10:20:12.312Z,23.60
2023-01-17T10:23:02.224Z,23.55
2023-01-17T10:25:51.043Z,23.52
2023-01-17T10:28:49.382Z,23.51
2023-01-17T10:31:39.305Z,23.50
2023-01-17T10:34:28.963Z,23.48
2023-01-17T10:37:24.858Z,23.46
2023-01-17T10:40:41.724Z,23.45
2023-01-17T10:43:34.680Z,23.45
2023-01-17T10:46:22.925Z,23.43
2023-01-17T10:49:14.702Z,23.42
2023-01-17T10:52:03.588Z,23.39
2023-01-17T10:55:08.827Z,23.38
2023-01-17T10:57:54.673Z,23.36
2023-01-17T11:00:45.472Z,23.36
2023-01-17T11:03:32.202Z,23.34
2023-01-17T11:06:19.161Z,23.33
2023-01-17T11:09:11.871Z,23.32
2023-01-17T11:11:57.834Z,23.29
2023-01-17T11:14:58.104Z,23.27
2023-01-17T11:17:53.051Z,23.25
2023-01-17T11:20:39.726Z,23.24
2023-01-17T11:23:34.875Z,23.26
2023-01-17T11:26:23.366Z,23.21
2023-01-17T11:29:31.645Z,23.21
2023-01-17T11:32:32.043Z,23.19
2023-01-17T11:35:28.011Z,23.17
2023-01-17T11:38:20.804Z,23.17
2023-01-17T11:41:20.363Z,23.15
2023-01-17T11:44:45.110Z,23.16
2023-01-17T11:47:31.177Z,23.11
2023-01-17T11:50:24.136Z,23.11
2023-01-17T11:53:16.029Z,23.10
2023-01-17T11:56:02.570Z,23.08
2023-01-17T11:58:48.732Z,23.08
2023-01-17T12:01:38.239Z,23.07
2023-01-17T12:04:27.996Z,23.07
2023-01-17T12:07:32.705Z,23.07
2023-01-17T12:10:33.901Z,23.07
2023-01-17T12:13:42.637Z,23.06
2023-01-17T12:16:31.662Z,23.08
2023-01-17T12:19:21.727Z,23.07
2023-01-17T12:22:07.568Z,23.06
2023-01-17T12:25:15.003Z,23.06
2023-01-17T12:28:11.301Z,23.05
2023-01-17T12:31:03.517Z,23.04
2023-01-17T12:34:07.031Z,23.05
2023-01-17T12:36:56.697Z,23.03
2023-01-17T12:39:43.679Z,23.00
2023-01-17T12:42:37.588Z,22.99
2023-01-17T12:45:43.116Z,22.98
2023-01-17T12:48:30.694Z,22.95
2023-01-17T12:51:23.421Z,22.95
2023-01-17T12:54:29.533Z,22.94
2023-01-17T12:57:16.040Z,22.93
2023-01-17T13:00:02.177Z,22.93
2023-01-17T13:02:54.789Z,22.94
2023-01-17T13:05:42.240Z,22.95
2023-01-17T13:08:31.267Z,22.97
2023-01-17T13:11:39.184Z,22.92
2023-01-17T13:14:25.266Z,22.94
2023-01-17T13:17:25.660Z,22.96
2023-01-17T13:20:16.443Z,22.95
2023-01-17T13:23:35.362Z,22.97
2023-01-17T13:26:33.866Z,22.98
2023-01-17T13:29:39.440Z,23.00
2023-01-17T13:32:38.399Z,22.99
2023-01-17T13:35:43.029Z,23.01
2023-01-17T13:38:30.974Z,23.00
2023-01-17T13:41:39.263Z,23.01
2023-01-17T13:44:27.563Z,23.02
2023-01-17T13:47:17.377Z,23.02
2023-01-17T13:50:03.624Z,23.02
2023-01-17T13:52:49.975Z,23.02
2023-01-17T13:55:47.044Z,23.02
2023-01-17T13:58:51.164Z,23.04
2023-01-17T14:01:49.756Z,23.03
2023-01-17T14:04:55.523Z,23.05
2023-01-17T14:07:48.566Z,23.05
2023-01-17T14:10:36.482Z,23.04
2023-01-17T14:13:25.756Z,23.07
2023-01-17T14:16:21.316Z,23.06
2023-01-17T14:19:13.409Z,23.08
2023-01-17T14:22:29.202Z,23.07
2023-01-17T14:25:17.513Z,23.08
2023-01-17T14:28:04.552Z,23.13
2023-01-17T14:30:54.468Z,23.13
2023-01-17T14:33:40.983Z,23.12
2023-01-17T14:36:28.003Z,23.11
2023-01-17T14:39:20.923Z,23.12
2023-01-17T14:42:06.904Z,23.11
2023-01-17T14:44:56.800Z,23.09
2023-01-17T14:47:43.367Z,23.10
2023-01-17T14:50:30.457Z,23.10
2023-01-17T14:53:28.031Z,23.09
2023-01-17T14:56:15.328Z,23.10
2023-01-17T14:59:05.149Z,23.09
2023-01-17T15:02:06.130Z,23.10
2023-01-17T15:04:54.073Z,23.09
2023-01-17T15:07:40.434Z,23.10
2023-01-17T15:10:27.767Z,23.10
2023-01-17T15:13:14.008Z,23.10
2023-01-17T15:16:04.401Z,23.10
2023-01-17T15:18:50.965Z,23.11
2023-01-17T15:21:40.654Z,23.10
2023-01-17T15:24:27.614Z,23.11
2023-01-17T15:27:14.649Z,23.10
2023-01-17T15:30:02.761Z,23.08
2023-01-17T15:32:51.266Z,23.11
2023-01-17T15:35:37.286Z,23.11
2023-01-17T15:38:23.521Z,23.10
2023-01-17T15:41:15.959Z,23.12
2023-01-17T15:44:02.408Z,23.10
2023-01-17T15:46:48.600Z,23.12
2023-01-17T15:49:34.797Z,23.11
2023-01-17T15:52:21.631Z,23.13
2023-01-17T15:55:12.484Z,23.14
2023-01-17T15:57:58.745Z,23.16
2023-01-17T16:00:47.060Z,23.17
2023-01-17T16:03:33.335Z,23.18
2023-01-17T16:06:36.322Z,23.18
2023-01-17T16:09:22.461Z,23.17
2023-01-17T16:12:08.416Z,23.19
2023-01-17T16:15:11.293Z,23.19
2023-01-17T16:17:58.776Z,23.22
2023-01-17T16:20:46.878Z,23.23
2023-01-17T16:23:32.876Z,23.22
2023-01-17T16:26:19.253Z,23.23
2023-01-17T16:29:05.283Z,23.23
2023-01-17T16:31:51.175Z,23.24
2023-01-17T16:34:37.388Z,23.26
2023-01-17T16:37:23.931Z,23.24
2023-01-17T16:40:10.546Z,23.25
2023-01-17T16:42:56.844Z,23.26
2023-01-17T16:45:53.220Z,23.25
2023-01-17T16:48:39.514Z,23.26
2023-01-17T16:51:25.664Z,23.26
2023-01-17T16:54:12.111Z,23.26
2023-01-17T16:56:58.170Z,23.25
2023-01-17T16:59:50.629Z,23.26
2023-01-17T17:02:39.037Z,23.26
2023-01-17T17:05:26.105Z,23.28
2023-01-17T17:08:12.045Z,23.28
2023-01-17T17:11:13.274Z,23.29
2023-01-17T17:13:59.237Z,23.30
2023-01-17T17:16:47.580Z,23.29
2023-01-17T17:19:34.447Z,23.31
2023-01-17T17:22:20.549Z,23.32
2023-01-17T17:25:07.155Z,23.31
2023-01-17T17:27:53.810Z,23.33
2023-01-17T17:30:40.465Z,23.35
2023-01-17T17:33:26.441Z,23.37
2023-01-17T17:36:12.587Z,23.37
2023-01-17T17:38:58.974Z,23.37
2023-01-17T17:41:45.936Z,23.35
2023-01-17T17:44:32.269Z,23.34
2023-01-17T17:47:18.790Z,23.35
2023-01-17T17:50:05.465Z,23.36
2023-01-17T17:52:51.464Z,23.36
2023-01-17T17:55:38.308Z,23.36
2023-01-17T17:58:25.635Z,23.35
2023-01-17T18:01:11.767Z,23.37
2023-01-17T18:04:00.526Z,23.38
2023-01-17T18:06:46.574Z,23.38
2023-01-17T18:09:32.528Z,23.38
2023-01-17T18:12:18.520Z,23.38
2023-01-17T18:15:05.014Z,23.39
2023-01-17T18:17:52.576Z,23.39
2023-01-17T18:20:38.365Z,23.40
2023-01-17T18:23:24.630Z,23.39
2023-01-17T18:26:21.684Z,23.39
2023-01-17T18:29:09.667Z,23.40
2023-01-17T18:31:55.775Z,23.40
2023-01-17T18:34:42.407Z,23.41
2023-01-17T18:37:28.403Z,23.41
2023-01-17T18:40:14.846Z,23.41
2023-01-17T18:43:00.741Z,23.42
2023-01-17T18:45:53.495Z,23.42
2023-01-17T18:48:39.973Z,23.43
2023-01-17T18:51:25.941Z,23.42
2023-01-17T18:54:12.056Z,23.42
2023-01-17T18:56:58.300Z,23.42
2023-01-17T18:59:44.753Z,23.42
2023-01-17T19:02:30.764Z,23.42
2023-01-17T19:05:18.111Z,23.43
2023-01-17T19:08:03.943Z,23.43
2023-01-17T19:10:49.965Z,23.43
2023-01-17T19:13:36.220Z,23.44
2023-01-17T19:16:28.133Z,23.44
2023-01-17T19:19:14.938Z,23.43
2023-01-17T19:22:01.096Z,23.44
2023-01-17T19:24:47.272Z,23.45
2023-01-17T19:27:33.570Z,23.45
2023-01-17T19:30:20.049Z,23.45
2023-01-17T19:33:06.018Z,23.47
2023-01-17T19:35:52.055Z,23.47
2023-01-17T19:38:38.108Z,23.48
2023-01-17T19:41:26.662Z,23.48
2023-01-17T19:44:13.453Z,23.53
2023-01-17T19:46:59.739Z,23.56
2023-01-17T19:49:45.716Z,23.60
2023-01-17T19:52:31.816Z,23.62
2023-01-17T19:55:18.283Z,23.66
2023-01-17T19:58:04.407Z,24.75
2023-01-17T20:00:52.437Z,25.37
2023-01-17T20:03:38.544Z,24.86
2023-01-17T20:06:24.947Z,24.57
2023-01-17T20:09:11.299Z,24.27
2023-01-17T20:11:57.341Z,24.08
2023-01-17T20:14:43.403Z,24.02
2023-01-17T20:17:29.675Z,23.97
2023-01-17T20:20:16.276Z,23.93
2023-01-17T20:23:05.573Z,23.89
2023-01-17T20:25:59.244Z,23.87
2023-01-17T20:28:45.980Z,23.85
2023-01-17T20:31:32.410Z,23.83
2023-01-17T20:34:18.740Z,23.81
2023-01-17T20:37:04.555Z,23.80
2023-01-17T20:39:50.325Z,23.80
2023-01-17T20:42:36.741Z,23.78
2023-01-17T20:45:23.059Z,23.78
2023-01-17T20:48:09.603Z,23.77
2023-01-17T20:50:55.773Z,23.76
2023-01-17T20:53:42.219Z,23.75
2023-01-17T20:56:30.192Z,23.75
2023-01-17T20:59:16.957Z,23.75
2023-01-17T21:02:03.414Z,23.74
2023-01-17T21:04:49.754Z,23.73
2023-01-17T21:07:35.845Z,23.73
2023-01-17T21:10:22.151Z,23.73
2023-01-17T21:13:08.066Z,23.74
2023-01-17T21:15:54.329Z,23.72
2023-01-17T21:18:40.444Z,23.72
2023-01-17T21:21:26.966Z,23.72
2023-01-17T21:24:18.475Z,23.73
2023-01-17T21:27:04.848Z,23.75
2023-01-17T21:29:52.984Z,23.76
2023-01-17T21:32:39.291Z,23.76
2023-01-17T21:35:26.562Z,23.80
2023-01-17T21:38:13.823Z,23.86
2023-01-17T21:41:00.165Z,23.91
2023-01-17T21:43:46.538Z,23.97
2023-01-17T21:46:32.621Z,24.03
2023-01-17T21:49:19.212Z,24.04
2023-01-17T21:52:05.027Z,24.06
2023-01-17T21:55:10.125Z,24.09
2023-01-17T21:58:14.978Z,24.13
2023-01-17T22:01:18.280Z,24.14
2023-01-17T22:04:04.523Z,24.20
2023-01-17T22:06:50.829Z,24.20
2023-01-17T22:09:36.973Z,24.23
2023-01-17T22:12:22.857Z,24.25
2023-01-17T22:15:09.304Z,24.29
2023-01-17T22:17:55.714Z,24.31
2023-01-17T22:20:42.320Z,24.33
2023-01-17T22:23:28.570Z,24.36
2023-01-17T22:26:14.595Z,24.37
2023-01-17T22:29:00.662Z,24.42
2023-01-17T22:31:46.640Z,24.41
2023-01-17T22:34:32.741Z,24.43
2023-01-17T22:37:18.782Z,24.45
2023-01-17T22:40:05.953Z,24.45
2023-01-17T22:42:51.988Z,24.48
2023-01-17T22:45:37.939Z,24.52
2023-01-17T22:48:24.053Z,24.51
2023-01-17T22:51:11.042Z,24.52
2023-01-17T22:53:58.007Z,24.53
2023-01-17T22:56:43.882Z,24.61
2023-01-17T22:59:29.926Z,24.57
2023-01-17T23:02:16.720Z,24.48
2023-01-17T23:05:02.877Z,24.39
2023-01-17T23:07:52.103Z,24.33
2023-01-17T23:10:56.713Z,24.29
2023-01-17T23:13:42.959Z,24.26
2023-01-17T23:16:55.130Z,24.23
2023-01-17T23:19:42.392Z,24.18
2023-01-17T23:22:29.111Z,24.16
2023-01-17T23:25:15.145Z,24.12
2023-01-17T23:28:19.915Z,24.09
2023-01-17T23:31:09.396Z,24.07
2023-01-17T23:33:55.341Z,24.05
2023-01-17T23:36:41.458Z,24.04
2023-01-17T23:39:28.621Z,24.02
2023-01-17T23:42:53.609Z,24.00
2023-01-17T23:45:39.688Z,23.97
2023-01-17T23:48:28.858Z,23.95
2023-01-17T23:51:15.210Z,23.94
2023-01-17T23:54:05.428Z,23.91
2023-01-17T23:56:51.636Z,23.88
2023-01-17T23:59:38.120Z,23.87
